Aviator — V7NU9 — position and weather

sailwx.info

Track history (hours):
 
Tides and Currents Weather Stations Pressure Air Temp Water Temp Dewpoint Dewpoint Depression Visibility Wind Speed Wind Dir Waves Ship Positions

Aviator

Last reported at 2015-Feb-13 23:13 UTC. Time now 2015-Feb-27 11:41 UTC.
Position N 27°43' W 082°33'.
Warning: this ship's position is 13 days out of date.

Length 140 m; draft 6.1 m.

Type: Cargo ship. MMSI: 538003023.

Date/timePositionNaut miles runAvg speedWind from/ knotsBaromVisibWave heightAir tempDewpointWater temp
2015-Feb-13 23:13N 27°43' W 082°33'811.2
2015-Feb-13 22:33N 27°48' W 082°27'7 7.0
2015-Feb-13 21:33N 27°55' W 082°25'0 0.0
2015-Feb-13 20:32N 27°55' W 082°25'0 0.0
2015-Feb-13 19:32N 27°55' W 082°25'0 0.0
2015-Feb-13 18:29N 27°55' W 082°25'0 0.0
2015-Feb-13 17:32N 27°55' W 082°25'0 0.0
2015-Feb-13 16:32N 27°55' W 082°25'0 0.0
2015-Feb-13 15:32N 27°55' W 082°25'0 0.0
2015-Feb-13 14:32N 27°55' W 082°25'0 0.0
2015-Feb-13 13:32N 27°55' W 082°25'0 0.0
2015-Feb-13 12:32N 27°55' W 082°25'0 0.0
2015-Feb-13 11:32N 27°55' W 082°25'0 0.0
2015-Feb-13 10:32N 27°55' W 082°25'0 0.0
2015-Feb-13 09:32N 27°55' W 082°25'0 0.0
2015-Feb-13 08:32N 27°55' W 082°25'0 0.0
2015-Feb-13 07:32N 27°55' W 082°25'0 0.0
2015-Feb-13 06:32N 27°55' W 082°25'0 0.0
2015-Feb-13 05:32N 27°55' W 082°25'0 0.0
2015-Feb-13 04:32N 27°55' W 082°25'0 0.0
2015-Feb-13 03:29N 27°55' W 082°25'0 0.0
2015-Feb-13 02:32N 27°55' W 082°25'0 0.0
2015-Feb-13 01:32N 27°55' W 082°25'0 0.0
2015-Feb-13 00:32N 27°55' W 082°25'0 0.0
2015-Feb-12 23:29N 27°55' W 082°25'0 0.0
2015-Feb-12 22:32N 27°55' W 082°25'0 0.0
2015-Feb-12 21:32N 27°55' W 082°25'0 0.0
2015-Feb-12 20:32N 27°55' W 082°25'0 0.0
2015-Feb-12 19:32N 27°55' W 082°25'0 0.0
2015-Feb-12 18:32N 27°55' W 082°25'0 0.0
2015-Feb-12 17:32N 27°55' W 082°25'0 0.0
2015-Feb-12 16:32N 27°55' W 082°25'0 0.4
2015-Feb-12 15:34N 27°55' W 082°26'4 4.0
2015-Feb-12 14:34N 27°51' W 082°24'0 0.1
2015-Feb-12 13:32N 27°51' W 082°24'0 0.0
2015-Feb-12 12:32N 27°51' W 082°24'0 0.0
2015-Feb-12 11:32N 27°51' W 082°24'0 0.0
2015-Feb-12 10:32N 27°51' W 082°24'0 0.0
2015-Feb-12 09:32N 27°51' W 082°24'0 0.0
2015-Feb-12 08:32N 27°51' W 082°24'0 0.0
2015-Feb-12 07:32N 27°51' W 082°24'0 0.0
2015-Feb-12 06:32N 27°51' W 082°24'0 0.0
2015-Feb-12 05:32N 27°51' W 082°24'0 0.0
2015-Feb-12 04:32N 27°51' W 082°24'0 0.0
2015-Feb-12 03:32N 27°51' W 082°24'0 0.0
2015-Feb-12 02:32N 27°51' W 082°24'0 0.0
2015-Feb-12 01:32N 27°51' W 082°24'0 0.0
2015-Feb-12 00:32N 27°51' W 082°24'0 0.0
2015-Feb-11 23:32N 27°51' W 082°24'0 0.0
2015-Feb-11 22:32N 27°51' W 082°24'0 0.0
2015-Feb-11 21:32N 27°51' W 082°24'0 0.0
2015-Feb-11 20:32N 27°51' W 082°24'0 0.0
2015-Feb-11 19:32N 27°51' W 082°24'0 0.0
2015-Feb-11 18:32N 27°51' W 082°24'0 0.3
2015-Feb-11 17:33N 27°51' W 082°24'8 7.8
2015-Feb-11 16:34N 27°47' W 082°31'1212.2
2015-Feb-11 15:33N 27°37' W 082°40'16 0.5
2015-Feb-10 06:26N 27°38' W 082°58'  
Track history (hours):
 
Tides and Currents Weather Stations Pressure Air Temp Water Temp Dewpoint Dewpoint Depression Visibility Wind Speed Wind Dir Waves Ship Positions

Aviator

Last reported at 2015-Feb-13 23:13 UTC. Time now 2015-Feb-27 11:41 UTC.
Position N 27°43' W 082°33'.
Warning: this ship's position is 13 days out of date.

Length 140 m; draft 6.1 m.

Type: Cargo ship. MMSI: 538003023.

Date/timePositionNaut miles runAvg speedWind from/ knotsBaromVisibWave heightAir tempDewpointWater temp
2015-Feb-13 23:13N 27°43' W 082°33'811.2
2015-Feb-13 22:33N 27°48' W 082°27'7 7.0
2015-Feb-13 21:33N 27°55' W 082°25'0 0.0
2015-Feb-13 20:32N 27°55' W 082°25'0 0.0
2015-Feb-13 19:32N 27°55' W 082°25'0 0.0
2015-Feb-13 18:29N 27°55' W 082°25'0 0.0
2015-Feb-13 17:32N 27°55' W 082°25'0 0.0
2015-Feb-13 16:32N 27°55' W 082°25'0 0.0
2015-Feb-13 15:32N 27°55' W 082°25'0 0.0
2015-Feb-13 14:32N 27°55' W 082°25'0 0.0
2015-Feb-13 13:32N 27°55' W 082°25'0 0.0
2015-Feb-13 12:32N 27°55' W 082°25'0 0.0
2015-Feb-13 11:32N 27°55' W 082°25'0 0.0
2015-Feb-13 10:32N 27°55' W 082°25'0 0.0
2015-Feb-13 09:32N 27°55' W 082°25'0 0.0
2015-Feb-13 08:32N 27°55' W 082°25'0 0.0
2015-Feb-13 07:32N 27°55' W 082°25'0 0.0
2015-Feb-13 06:32N 27°55' W 082°25'0 0.0
2015-Feb-13 05:32N 27°55' W 082°25'0 0.0
2015-Feb-13 04:32N 27°55' W 082°25'0 0.0
2015-Feb-13 03:29N 27°55' W 082°25'0 0.0
2015-Feb-13 02:32N 27°55' W 082°25'0 0.0
2015-Feb-13 01:32N 27°55' W 082°25'0 0.0
2015-Feb-13 00:32N 27°55' W 082°25'0 0.0
2015-Feb-12 23:29N 27°55' W 082°25'0 0.0
2015-Feb-12 22:32N 27°55' W 082°25'0 0.0
2015-Feb-12 21:32N 27°55' W 082°25'0 0.0
2015-Feb-12 20:32N 27°55' W 082°25'0 0.0
2015-Feb-12 19:32N 27°55' W 082°25'0 0.0
2015-Feb-12 18:32N 27°55' W 082°25'0 0.0
2015-Feb-12 17:32N 27°55' W 082°25'0 0.0
2015-Feb-12 16:32N 27°55' W 082°25'0 0.4
2015-Feb-12 15:34N 27°55' W 082°26'4 4.0
2015-Feb-12 14:34N 27°51' W 082°24'0 0.1
2015-Feb-12 13:32N 27°51' W 082°24'0 0.0
2015-Feb-12 12:32N 27°51' W 082°24'0 0.0
2015-Feb-12 11:32N 27°51' W 082°24'0 0.0
2015-Feb-12 10:32N 27°51' W 082°24'0 0.0
2015-Feb-12 09:32N 27°51' W 082°24'0 0.0
2015-Feb-12 08:32N 27°51' W 082°24'0 0.0
2015-Feb-12 07:32N 27°51' W 082°24'0 0.0
2015-Feb-12 06:32N 27°51' W 082°24'0 0.0
2015-Feb-12 05:32N 27°51' W 082°24'0 0.0
2015-Feb-12 04:32N 27°51' W 082°24'0 0.0
2015-Feb-12 03:32N 27°51' W 082°24'0 0.0
2015-Feb-12 02:32N 27°51' W 082°24'0 0.0
2015-Feb-12 01:32N 27°51' W 082°24'0 0.0
2015-Feb-12 00:32N 27°51' W 082°24'0 0.0
2015-Feb-11 23:32N 27°51' W 082°24'0 0.0
2015-Feb-11 22:32N 27°51' W 082°24'0 0.0
2015-Feb-11 21:32N 27°51' W 082°24'0 0.0
2015-Feb-11 20:32N 27°51' W 082°24'0 0.0
2015-Feb-11 19:32N 27°51' W 082°24'0 0.0
2015-Feb-11 18:32N 27°51' W 082°24'0 0.3
2015-Feb-11 17:33N 27°51' W 082°24'8 7.8
2015-Feb-11 16:34N 27°47' W 082°31'1212.2
2015-Feb-11 15:33N 27°37' W 082°40'16 0.5
2015-Feb-10 06:26N 27°38' W 082°58'  

Dump ship's entire track history